Back to Top

Language: 

My Weather Underground Personal Weather Station Historical Data with Graphs...

Delerius Weather Station Historical Data
Daily Summary for December 21, 2017 Units:  Metric    English   Both
« Previous Day
Next Day »
Daily Weekly Monthly Yearly Custom
  High: Low: Average:
Temperature: 10.5 °C 7.6 °C 9.1 °C
Dew Point: 9.7 °C 6.8 °C 8.3 °C
Humidity: 97 % 91 % 95 %
Wind Speed: 14.5 km/h 0 km/h 3.2 km/h
Wind Gust: 20.9 km/h - -
Wind:- - West
Pressure: 1034.1 hPa 1032.1 hPa -
Precipitation: 0.25 mm    
Historical Graphs
 
 
Tabular Data for December 21, 2017
Time Temperature Dew Point Pressure Wind Wind Speed Wind Gust Humidity Rainfall Rate (Hourly) solar Conditions
00:03 9.1 °C 7.7 °C 1034.1 hPa NE 1.6 km/h 3.2 km/h 91 % 0 mm 0 W/m2
00:05 9.1 °C 7.7 °C 1034.1 hPa NE 1.6 km/h 3.2 km/h 91 % 0 mm 0 W/m2
00:10 9.1 °C 7.9 °C 1034.1 hPa Calm     92 % 0 mm 0 W/m2
00:11 9.1 °C 7.9 °C 1034.1 hPa Calm     92 % 0 mm 0 W/m2
00:14 9 °C 7.6 °C 1034.1 hPa Calm     91 % 0 mm 0 W/m2
00:16 9 °C 7.6 °C 1034.1 hPa Calm     91 % 0 mm 0 W/m2
00:21 9 °C 7.8 °C 1034.1 hPa Calm     92 % 0 mm 0 W/m2
00:22 9 °C 7.8 °C 1034.1 hPa Calm     92 % 0 mm 0 W/m2
00:24 9 °C 7.8 °C 1034.1 hPa Calm     92 % 0 mm 0 W/m2
00:27 9.1 °C 7.9 °C 1034.1 hPa Calm     92 % 0 mm 0 W/m2
00:32 9 °C 7.8 °C 1034.1 hPa Calm     92 % 0 mm 0 W/m2
00:33 9 °C 7.8 °C 1034.1 hPa Calm     92 % 0 mm 0 W/m2
00:37 8.9 °C 7.5 °C 1033.7 hPa Calm     91 % 0 mm 0 W/m2
00:40 8.9 °C 7.7 °C 1033.7 hPa Calm     92 % 0 mm 0 W/m2
00:45 8.9 °C 7.7 °C 1033.7 hPa Calm     92 % 0 mm 0 W/m2
00:47 8.9 °C 7.7 °C 1033.7 hPa Calm     92 % 0 mm 0 W/m2
00:50 8.9 °C 7.7 °C 1033.7 hPa Calm     92 % 0 mm 0 W/m2
00:52 8.9 °C 7.7 °C 1033.7 hPa Calm   1.6 km/h 92 % 0 mm 0 W/m2
00:57 8.8 °C 7.4 °C 1033.7 hPa Calm     91 % 0 mm 0 W/m2
00:58 8.8 °C 7.4 °C 1033.7 hPa Calm     91 % 0 mm 0 W/m2
01:03 8.7 °C 7.5 °C 1034.1 hPa Calm     92 % 0 mm 0 W/m2
01:05 8.7 °C 7.5 °C 1033.7 hPa Calm     92 % 0 mm 0 W/m2
01:10 8.6 °C 7.4 °C 1034.1 hPa NE 1.6 km/h 3.2 km/h 92 % 0 mm 0 W/m2
01:11 8.6 °C 7.4 °C 1034.1 hPa NE 1.6 km/h 3.2 km/h 92 % 0 mm 0 W/m2
01:16 8.5 °C 7.3 °C 1034.1 hPa Calm     92 % 0 mm 0 W/m2
01:17 8.5 °C 7.3 °C 1034.1 hPa NE 1.6 km/h 3.2 km/h 92 % 0 mm 0 W/m2
01:21 8.4 °C 7.2 °C 1034.1 hPa Calm   1.6 km/h 92 % 0 mm 0 W/m2
01:26 8.4 °C 7.2 °C 1034.1 hPa NE 3.2 km/h 6.4 km/h 92 % 0 mm 0 W/m2
01:27 8.4 °C 7.2 °C 1034.1 hPa NE 3.2 km/h 6.4 km/h 92 % 0 mm 0 W/m2
01:32 8.4 °C 7.2 °C 1034.1 hPa Calm     92 % 0 mm 0 W/m2
01:33 8.4 °C 7.2 °C 1034.1 hPa Calm     92 % 0 mm 0 W/m2
01:36 8.4 °C 7.2 °C 1034.1 hPa Calm     92 % 0 mm 0 W/m2
01:38 8.4 °C 7.2 °C 1034.1 hPa Calm     92 % 0 mm 0 W/m2
01:43 8.4 °C 7.3 °C 1034.1 hPa Calm     93 % 0 mm 0 W/m2
01:44 8.4 °C 7.3 °C 1034.1 hPa Calm     93 % 0 mm 0 W/m2
01:53 8.4 °C 7.3 °C 1034.1 hPa Calm     93 % 0 mm 0 W/m2
01:54 8.4 °C 7.3 °C 1034.1 hPa Calm     93 % 0 mm 0 W/m2
01:58 8.3 °C 7.2 °C 1034.1 hPa Calm     93 % 0 mm 0 W/m2
02:00 8.3 °C 7.2 °C 1034.1 hPa Calm     93 % 0 mm 0 W/m2
02:05 8.3 °C 7.2 °C 1034.1 hPa Calm     93 % 0 mm 0 W/m2
02:10 8.2 °C 7.1 °C 1034.1 hPa Calm   1.6 km/h 93 % 0 mm 0 W/m2
02:11 8.2 °C 7.1 °C 1034.1 hPa Calm   1.6 km/h 93 % 0 mm 0 W/m2
02:12 8.2 °C 7.1 °C 1034.1 hPa Calm   1.6 km/h 93 % 0 mm 0 W/m2
02:17 8.2 °C 7.1 °C 1034.1 hPa Calm     93 % 0 mm 0 W/m2
02:18 8.2 °C 7.1 °C 1034.1 hPa Calm     93 % 0 mm 0 W/m2
02:23 8.1 °C 7.1 °C 1033.7 hPa Calm     93 % 0 mm 0 W/m2
02:28 8.1 °C 7.1 °C 1033.7 hPa Calm     93 % 0 mm 0 W/m2
02:32 8.1 °C 7.1 °C 1033.7 hPa Calm     93 % 0 mm 0 W/m2
02:33 8.1 °C 7.1 °C 1033.7 hPa Calm     93 % 0 mm 0 W/m2
02:38 8.1 °C 7.2 °C 1033.7 hPa Calm     94 % 0 mm 0 W/m2
02:39 8.1 °C 7.2 °C 1033.7 hPa Calm     94 % 0 mm 0 W/m2
02:44 8.1 °C 7.2 °C 1033.7 hPa Calm     94 % 0 mm 0 W/m2
02:49 8.2 °C 7.3 °C 1033.7 hPa Calm     94 % 0 mm 0 W/m2
02:52 8.2 °C 7.3 °C 1033.7 hPa Calm     94 % 0 mm 0 W/m2
02:56 8.2 °C 7.3 °C 1033.7 hPa Calm     94 % 0 mm 0 W/m2
03:01 8.1 °C 7.2 °C 1033.7 hPa Calm     94 % 0 mm 0 W/m2
03:02 8.1 °C 7.2 °C 1033.7 hPa Calm     94 % 0 mm 0 W/m2
03:07 8.1 °C 7.2 °C 1033.4 hPa Calm     94 % 0 mm 0 W/m2
03:13 8.1 °C 7.2 °C 1033.4 hPa Calm     94 % 0 mm 0 W/m2
03:18 8.2 °C 7.3 °C 1033.4 hPa North 3.2 km/h 3.2 km/h 94 % 0 mm 0 W/m2
03:22 8.2 °C 7.3 °C 1033.7 hPa North 1.6 km/h 3.2 km/h 94 % 0 mm 0 W/m2
03:23 8.2 °C 7.3 °C 1033.7 hPa North 1.6 km/h 3.2 km/h 94 % 0 mm 0 W/m2
03:32 8.3 °C 7.6 °C 1033.4 hPa Calm     95 % 0 mm 0 W/m2
03:37 8.3 °C 7.6 °C 1033.4 hPa Calm     95 % 0 mm 0 W/m2
03:39 8.3 °C 7.6 °C 1033.4 hPa Calm     95 % 0 mm 0 W/m2
03:42 8.3 °C 7.4 °C 1033.4 hPa Calm     94 % 0 mm 0 W/m2
03:47 8.2 °C 7.3 °C 1033.4 hPa Calm     94 % 0 mm 0 W/m2
03:52 8.2 °C 7.3 °C 1033.4 hPa Calm     94 % 0 mm 0 W/m2
03:53 8.2 °C 7.3 °C 1033.4 hPa Calm     94 % 0 mm 0 W/m2
03:58 8.1 °C 7.2 °C 1033.4 hPa Calm     94 % 0 mm 0 W/m2
04:00 8.1 °C 7.2 °C 1033.4 hPa Calm     94 % 0 mm 0 W/m2
04:05 8.1 °C 7.2 °C 1033.4 hPa Calm     94 % 0 mm 0 W/m2
04:07 8 °C 7.1 °C 1033.4 hPa Calm     94 % 0 mm 0 W/m2
04:10 7.9 °C 7 °C 1033.1 hPa Calm     94 % 0 mm 0 W/m2
04:14 7.9 °C 7 °C 1033.4 hPa Calm     94 % 0 mm 0 W/m2
04:19 7.9 °C 7.2 °C 1033.1 hPa Calm     95 % 0 mm 0 W/m2
04:24 7.9 °C 7.2 °C 1033.4 hPa Calm     95 % 0 mm 0 W/m2
04:26 7.9 °C 7.2 °C 1033.4 hPa Calm     95 % 0 mm 0 W/m2
04:29 7.9 °C 7.2 °C 1033.1 hPa Calm     95 % 0 mm 0 W/m2
04:34 7.9 °C 7.2 °C 1033.1 hPa Calm     95 % 0 mm 0 W/m2
04:35 7.9 °C 7.2 °C 1033.4 hPa Calm     95 % 0 mm 0 W/m2
04:42 7.8 °C 7.1 °C 1033.1 hPa Calm     95 % 0 mm 0 W/m2
04:43 7.8 °C 7.1 °C 1033.1 hPa Calm     95 % 0 mm 0 W/m2
04:48 7.8 °C 7.1 °C 1033.4 hPa Calm     95 % 0 mm 0 W/m2
04:49 7.8 °C 7.1 °C 1033.4 hPa Calm     95 % 0 mm 0 W/m2
04:55 7.8 °C 7.1 °C 1033.4 hPa WNW 3.2 km/h 6.4 km/h 95 % 0 mm 0 W/m2
04:56 7.8 °C 7.1 °C 1033.4 hPa West 3.2 km/h 6.4 km/h 95 % 0 mm 0 W/m2
05:01 7.7 °C 6.9 °C 1033.4 hPa Calm     95 % 0 mm 0 W/m2
05:02 7.7 °C 6.9 °C 1033.4 hPa Calm     95 % 0 mm 0 W/m2
05:05 7.7 °C 6.9 °C 1033.4 hPa Calm   3.2 km/h 95 % 0 mm 0 W/m2
05:08 7.7 °C 6.9 °C 1033.4 hPa West 1.6 km/h 6.4 km/h 95 % 0 mm 0 W/m2
05:13 7.8 °C 7.1 °C 1033.7 hPa NNW 6.4 km/h 9.7 km/h 95 % 0 mm 0 W/m2
05:16 7.8 °C 7.2 °C 1033.7 hPa NNW 3.2 km/h 6.4 km/h 96 % 0 mm 0 W/m2
05:19 7.9 °C 7.3 °C 1033.4 hPa Calm     96 % 0 mm 0 W/m2
05:24 7.9 °C 7.2 °C 1033.7 hPa Calm     95 % 0 mm 0 W/m2
05:25 7.9 °C 7.2 °C 1033.7 hPa Calm     95 % 0 mm 0 W/m2
05:28 7.8 °C 7.1 °C 1033.7 hPa Calm     95 % 0 mm 0 W/m2
05:45 7.7 °C 6.9 °C 1033.7 hPa Calm     95 % 0 mm 0 W/m2
05:47 7.6 °C 6.8 °C 1033.7 hPa Calm     95 % 0 mm 0 W/m2
05:52 7.6 °C 6.8 °C 1033.7 hPa Calm     95 % 0 mm 0 W/m2
05:53 7.6 °C 6.8 °C 1033.7 hPa Calm     95 % 0 mm 0 W/m2
05:58 7.6 °C 6.8 °C 1033.7 hPa Calm     95 % 0 mm 0 W/m2
05:59 7.6 °C 6.8 °C 1033.7 hPa Calm     95 % 0 mm 0 W/m2
06:03 7.6 °C 6.8 °C 1033.7 hPa Calm     95 % 0 mm 0 W/m2
06:04 7.6 °C 6.8 °C 1033.7 hPa Calm     95 % 0 mm 0 W/m2
06:06 7.6 °C 6.8 °C 1033.7 hPa Calm     95 % 0 mm 0 W/m2
06:11 7.6 °C 6.8 °C 1033.7 hPa Calm     95 % 0 mm 0 W/m2
06:13 7.6 °C 6.8 °C 1033.7 hPa Calm     95 % 0 mm 0 W/m2
06:15 7.6 °C 6.8 °C 1033.7 hPa Calm     95 % 0 mm 0 W/m2
06:18 7.6 °C 6.8 °C 1033.4 hPa Calm     95 % 0.25 mm 0 W/m2
06:23 7.6 °C 7 °C 1033.4 hPa Calm     96 % 0.25 mm 0 W/m2
06:26 7.6 °C 7 °C 1033.4 hPa Calm     96 % 0.25 mm 0 W/m2
06:31 7.6 °C 7 °C 1033.4 hPa Calm     96 % 0.25 mm 0 W/m2
06:32 7.6 °C 7 °C 1033.4 hPa Calm     96 % 0.25 mm 0 W/m2
06:37 7.7 °C 7.1 °C 1033.7 hPa Calm     96 % 0.25 mm 0 W/m2
06:39 7.6 °C 7 °C 1033.7 hPa Calm     96 % 0.25 mm 0 W/m2
06:44 7.7 °C 7.1 °C 1033.7 hPa Calm     96 % 0.25 mm 0 W/m2
06:46 7.7 °C 7.1 °C 1033.4 hPa Calm     96 % 0.25 mm 0 W/m2
06:52 7.7 °C 7.1 °C 1033.4 hPa Calm     96 % 0.25 mm 0 W/m2
06:54 7.7 °C 7.1 °C 1033.4 hPa Calm     96 % 0.25 mm 0 W/m2
06:58 7.7 °C 7.1 °C 1033.7 hPa Calm     96 % 0.25 mm 0 W/m2
07:02 7.7 °C 7.1 °C 1033.7 hPa Calm     96 % 0.25 mm 0 W/m2
07:03 7.7 °C 7.1 °C 1033.4 hPa Calm     96 % 0.25 mm 0 W/m2
07:08 7.7 °C 7.1 °C 1033.4 hPa Calm     96 % 0.25 mm 0 W/m2
07:11 7.7 °C 7.1 °C 1033.4 hPa Calm     96 % 0.25 mm 0 W/m2
07:15 7.7 °C 7.1 °C 1033.4 hPa Calm     96 % 0 mm 0 W/m2
07:20 7.7 °C 7.1 °C 1033.4 hPa Calm     96 % 0 mm 0 W/m2
07:23 7.8 °C 7.2 °C 1033.4 hPa Calm     96 % 0 mm 0 W/m2
07:31 7.8 °C 7.2 °C 1033.4 hPa Calm     96 % 0 mm 0 W/m2
07:32 7.8 °C 7.2 °C 1033.4 hPa Calm     96 % 0 mm 0 W/m2
07:37 7.8 °C 7.2 °C 1033.4 hPa Calm     96 % 0 mm 0 W/m2
07:39 7.7 °C 7.1 °C 1033.4 hPa Calm     96 % 0 mm 0 W/m2
07:44 7.7 °C 7.1 °C 1033.4 hPa Calm     96 % 0 mm 0 W/m2
07:50 7.7 °C 7.1 °C 1033.4 hPa Calm     96 % 0 mm 0 W/m2
07:51 7.7 °C 7.1 °C 1033.4 hPa Calm     96 % 0 mm 0 W/m2
07:55 7.7 °C 7.1 °C 1033.4 hPa Calm     96 % 0 mm 0 W/m2
08:00 7.7 °C 7.1 °C 1033.4 hPa Calm     96 % 0 mm 0 W/m2
08:04 7.8 °C 7.2 °C 1033.4 hPa Calm     96 % 0 mm 0 W/m2
08:09 7.8 °C 7.2 °C 1033.4 hPa Calm     96 % 0 mm 0 W/m2
08:12 7.8 °C 7.2 °C 1033.4 hPa Calm     96 % 0 mm 0 W/m2
08:22 7.9 °C 7.3 °C 1033.4 hPa Calm     96 % 0 mm 0 W/m2
08:24 7.9 °C 7.3 °C 1033.4 hPa Calm     96 % 0 mm 0 W/m2
08:29 7.9 °C 7.3 °C 1033.4 hPa Calm     96 % 0 mm 0 W/m2
08:34 7.9 °C 7.3 °C 1033.4 hPa Calm     96 % 0 mm 0 W/m2
08:35 7.9 °C 7.3 °C 1033.4 hPa Calm     96 % 0 mm 0 W/m2
08:40 7.9 °C 7.3 °C 1033.4 hPa Calm     96 % 0 mm 5 W/m2
08:42 7.9 °C 7.3 °C 1033.4 hPa Calm     96 % 0 mm 5 W/m2
09:47 8.3 °C 7.8 °C 1033.4 hPa Calm     97 % 0 mm 23 W/m2
09:50 8.3 °C 7.8 °C 1033.4 hPa Calm     97 % 0 mm 23 W/m2
09:55 8.4 °C 7.9 °C 1033.4 hPa Calm     97 % 0 mm 30 W/m2
09:57 8.4 °C 7.9 °C 1033.4 hPa Calm     97 % 0 mm 28 W/m2
10:02 8.5 °C 8.1 °C 1033.7 hPa Calm     97 % 0 mm 28 W/m2
10:03 8.5 °C 8.1 °C 1033.7 hPa Calm     97 % 0 mm 28 W/m2
10:07 8.5 °C 8.1 °C 1033.7 hPa Calm     97 % 0 mm 33 W/m2
10:10 8.5 °C 8.1 °C 1033.7 hPa Calm     97 % 0 mm 33 W/m2
10:15 8.4 °C 7.9 °C 1033.7 hPa Calm     97 % 0 mm 33 W/m2
10:18 8.5 °C 8.1 °C 1033.7 hPa Calm     97 % 0 mm 33 W/m2
10:23 8.5 °C 8.1 °C 1033.7 hPa Calm     97 % 0 mm 35 W/m2
10:27 8.5 °C 8.1 °C 1033.7 hPa Calm     97 % 0 mm 42 W/m2
10:28 8.6 °C 8.2 °C 1033.7 hPa Calm     97 % 0 mm 42 W/m2
10:31 8.6 °C 8.2 °C 1033.7 hPa Calm     97 % 0 mm 40 W/m2
10:32 8.6 °C 8.2 °C 1033.7 hPa Calm     97 % 0 mm 40 W/m2
10:36 8.6 °C 8.2 °C 1033.7 hPa Calm     97 % 0 mm 39 W/m2
10:39 8.6 °C 8.2 °C 1033.7 hPa Calm     97 % 0 mm 33 W/m2
10:44 8.7 °C 8.3 °C 1033.4 hPa Calm     97 % 0 mm 32 W/m2
10:45 8.7 °C 8.3 °C 1033.4 hPa Calm     97 % 0 mm 30 W/m2
10:50 8.7 °C 8.3 °C 1033.4 hPa Calm   3.2 km/h 97 % 0 mm 32 W/m2
10:51 8.7 °C 8.3 °C 1033.4 hPa Calm   3.2 km/h 97 % 0 mm 33 W/m2
10:54 8.8 °C 8.3 °C 1033.4 hPa Calm     97 % 0 mm 37 W/m2
10:56 8.8 °C 8.3 °C 1033.4 hPa Calm     97 % 0 mm 39 W/m2
11:01 8.8 °C 8.3 °C 1033.4 hPa Calm     97 % 0 mm 44 W/m2
11:06 8.8 °C 8.3 °C 1033.4 hPa Calm     97 % 0 mm 46 W/m2
11:11 8.8 °C 8.3 °C 1033.1 hPa Calm     97 % 0 mm 62 W/m2
11:16 8.8 °C 8.3 °C 1033.1 hPa Calm     97 % 0 mm 63 W/m2
11:18 8.8 °C 8.3 °C 1033.1 hPa Calm     97 % 0 mm 60 W/m2
11:20 8.8 °C 8.3 °C 1033.1 hPa Calm     97 % 0 mm 58 W/m2
11:25 8.8 °C 8.3 °C 1033.1 hPa Calm     97 % 0 mm 54 W/m2
11:30 8.9 °C 8.4 °C 1033.1 hPa Calm     97 % 0 mm 53 W/m2
11:36 8.9 °C 8.4 °C 1033.1 hPa Calm     97 % 0 mm 63 W/m2
11:41 9 °C 8.6 °C 1033.1 hPa Calm     97 % 0 mm 63 W/m2
11:42 9 °C 8.6 °C 1033.1 hPa Calm     97 % 0 mm 60 W/m2
11:47 9 °C 8.6 °C 1033.1 hPa Calm     97 % 0 mm 53 W/m2
11:48 9 °C 8.6 °C 1033.1 hPa Calm     97 % 0 mm 54 W/m2
11:49 9 °C 8.6 °C 1033.1 hPa Calm     97 % 0 mm 56 W/m2
11:54 9 °C 8.6 °C 1033.1 hPa Calm     97 % 0 mm 37 W/m2
11:57 9 °C 8.4 °C 1033.1 hPa Calm     96 % 0 mm 37 W/m2
12:02 9 °C 8.4 °C 1033.1 hPa Calm     96 % 0 mm 37 W/m2
12:03 9 °C 8.4 °C 1033.1 hPa Calm     96 % 0 mm 37 W/m2
12:07 9 °C 8.6 °C 1033.1 hPa Calm     97 % 0 mm 42 W/m2
12:12 9.1 °C 8.7 °C 1033.1 hPa Calm     97 % 0 mm 54 W/m2
12:14 9.1 °C 8.7 °C 1032.7 hPa Calm     97 % 0 mm 60 W/m2
12:19 9.1 °C 8.7 °C 1032.7 hPa Calm     97 % 0 mm 65 W/m2
12:21 9.2 °C 8.7 °C 1032.7 hPa Calm     97 % 0 mm 69 W/m2
12:26 9.2 °C 8.7 °C 1032.7 hPa Calm     97 % 0 mm 63 W/m2
12:27 9.2 °C 8.7 °C 1032.7 hPa Calm     97 % 0 mm 62 W/m2
12:32 9.3 °C 8.8 °C 1032.7 hPa Calm     97 % 0 mm 58 W/m2
12:34 9.3 °C 8.8 °C 1032.7 hPa Calm     97 % 0 mm 53 W/m2
12:39 9.3 °C 8.8 °C 1032.7 hPa Calm     97 % 0 mm 49 W/m2
12:44 9.3 °C 8.8 °C 1032.7 hPa Calm     97 % 0 mm 35 W/m2
12:47 9.3 °C 8.8 °C 1032.7 hPa Calm     97 % 0 mm 40 W/m2
12:51 9.3 °C 8.8 °C 1032.7 hPa Calm     97 % 0 mm 46 W/m2
12:53 9.3 °C 8.8 °C 1032.7 hPa Calm     97 % 0 mm 44 W/m2
12:58 9.3 °C 8.8 °C 1032.7 hPa Calm     97 % 0 mm 49 W/m2
12:59 9.3 °C 8.8 °C 1032.7 hPa Calm     97 % 0 mm 51 W/m2
13:04 9.4 °C 8.9 °C 1032.7 hPa Calm     97 % 0 mm 44 W/m2
13:05 9.4 °C 8.9 °C 1032.7 hPa Calm     97 % 0 mm 44 W/m2
13:08 9.4 °C 8.9 °C 1032.7 hPa Calm     97 % 0 mm 42 W/m2
13:13 9.4 °C 8.9 °C 1032.7 hPa Calm     97 % 0 mm 42 W/m2
13:14 9.4 °C 8.9 °C 1032.7 hPa Calm     97 % 0 mm 42 W/m2
13:15 9.4 °C 8.9 °C 1032.4 hPa Calm     97 % 0 mm 44 W/m2
13:20 9.4 °C 8.9 °C 1032.4 hPa Calm     97 % 0 mm 42 W/m2
13:21 9.4 °C 8.9 °C 1032.4 hPa Calm     97 % 0 mm 44 W/m2
13:26 9.5 °C 9.1 °C 1032.4 hPa Calm     97 % 0 mm 46 W/m2
13:28 9.5 °C 9.1 °C 1032.4 hPa Calm     97 % 0 mm 46 W/m2
13:33 9.5 °C 9.1 °C 1032.4 hPa Calm     97 % 0 mm 42 W/m2
13:42 9.6 °C 9.2 °C 1032.4 hPa Calm     97 % 0 mm 47 W/m2
13:43 9.6 °C 9.2 °C 1032.4 hPa Calm     97 % 0 mm 47 W/m2
13:47 9.6 °C 9.2 °C 1032.4 hPa Calm   1.6 km/h 97 % 0 mm 46 W/m2
13:52 9.6 °C 9 °C 1032.4 hPa Calm     96 % 0 mm 40 W/m2
13:55 9.6 °C 9 °C 1032.4 hPa Calm     96 % 0 mm 39 W/m2
14:00 9.6 °C 9 °C 1032.4 hPa Calm     96 % 0 mm 35 W/m2
14:05 9.6 °C 9.2 °C 1032.4 hPa Calm     97 % 0 mm 30 W/m2
14:07 9.6 °C 9 °C 1032.4 hPa Calm     96 % 0 mm 28 W/m2
14:12 9.6 °C 9 °C 1032.4 hPa Calm     96 % 0 mm 26 W/m2
14:17 9.6 °C 9 °C 1032.4 hPa Calm     96 % 0 mm 26 W/m2
14:18 9.6 °C 9 °C 1032.4 hPa Calm     96 % 0 mm 25 W/m2
14:23 9.6 °C 9 °C 1032.4 hPa Calm     96 % 0 mm 23 W/m2
14:24 9.6 °C 9 °C 1032.4 hPa Calm     96 % 0 mm 23 W/m2
14:29 9.6 °C 9 °C 1032.1 hPa Calm     96 % 0 mm 21 W/m2
14:30 9.6 °C 9 °C 1032.1 hPa Calm     96 % 0 mm 21 W/m2
14:35 9.6 °C 9 °C 1032.4 hPa Calm     96 % 0 mm 21 W/m2
14:40 9.6 °C 9 °C 1032.4 hPa Calm     96 % 0 mm 21 W/m2
14:41 9.7 °C 9.1 °C 1032.4 hPa Calm     96 % 0 mm 21 W/m2
14:46 9.7 °C 9.1 °C 1032.4 hPa Calm   1.6 km/h 96 % 0 mm 21 W/m2
14:55 9.8 °C 9.3 °C 1032.4 hPa Calm   3.2 km/h 97 % 0 mm 19 W/m2
14:57 9.8 °C 9.3 °C 1032.4 hPa Calm     97 % 0 mm 18 W/m2
15:02 9.8 °C 9.3 °C 1032.4 hPa NNE 1.6 km/h 6.4 km/h 97 % 0 mm 16 W/m2
15:07 9.9 °C 9.4 °C 1032.4 hPa Calm   1.6 km/h 97 % 0 mm 16 W/m2
15:12 9.9 °C 9.4 °C 1032.4 hPa West 1.6 km/h 3.2 km/h 97 % 0 mm 12 W/m2
15:13 9.9 °C 9.4 °C 1032.4 hPa West 1.6 km/h 3.2 km/h 97 % 0 mm 12 W/m2
15:19 9.9 °C 9.3 °C 1032.4 hPa WSW 1.6 km/h 9.7 km/h 96 % 0 mm 9 W/m2
15:24 9.9 °C 9.3 °C 1032.1 hPa Calm   3.2 km/h 96 % 0 mm 7 W/m2
15:27 9.9 °C 9.3 °C 1032.1 hPa West 1.6 km/h 8 km/h 96 % 0 mm 5 W/m2
15:29 9.9 °C 9.3 °C 1032.1 hPa West 1.6 km/h 8 km/h 96 % 0 mm 5 W/m2
15:35 9.9 °C 9.3 °C 1032.1 hPa West 1.6 km/h 3.2 km/h 96 % 0 mm 0 W/m2
15:40 9.9 °C 9.3 °C 1032.1 hPa West 1.6 km/h 6.4 km/h 96 % 0 mm 0 W/m2
15:43 10 °C 9.4 °C 1032.1 hPa West 1.6 km/h 4.8 km/h 96 % 0 mm 0 W/m2
15:50 10.1 °C 9.7 °C 1032.1 hPa West 6.4 km/h 8 km/h 97 % 0 mm 0 W/m2
15:54 10.1 °C 9.7 °C 1032.1 hPa West 6.4 km/h 9.7 km/h 97 % 0 mm 0 W/m2
15:59 10.2 °C 9.6 °C 1032.1 hPa West 9.7 km/h 12.9 km/h 96 % 0 mm 0 W/m2
16:04 10.3 °C 9.7 °C 1032.1 hPa West 11.3 km/h 19.3 km/h 96 % 0 mm 0 W/m2
16:05 10.3 °C 9.7 °C 1032.1 hPa West 11.3 km/h 19.3 km/h 96 % 0 mm 0 W/m2
16:06 10.3 °C 9.7 °C 1032.1 hPa West 9.7 km/h 16.1 km/h 96 % 0 mm 0 W/m2
16:11 10.3 °C 9.7 °C 1032.1 hPa West 9.7 km/h 16.1 km/h 96 % 0 mm 0 W/m2
16:12 10.3 °C 9.7 °C 1032.1 hPa West 9.7 km/h 16.1 km/h 96 % 0 mm 0 W/m2
16:17 10.3 °C 9.7 °C 1032.1 hPa WSW 9.7 km/h 14.5 km/h 96 % 0 mm 0 W/m2
16:18 10.3 °C 9.7 °C 1032.1 hPa WSW 11.3 km/h 14.5 km/h 96 % 0 mm 0 W/m2
16:20 10.3 °C 9.7 °C 1032.1 hPa West 9.7 km/h 14.5 km/h 96 % 0 mm 0 W/m2
16:23 10.3 °C 9.7 °C 1032.1 hPa West 9.7 km/h 14.5 km/h 96 % 0 mm 0 W/m2
16:28 10.4 °C 9.6 °C 1032.1 hPa West 12.9 km/h 19.3 km/h 95 % 0 mm 0 W/m2
16:29 10.4 °C 9.6 °C 1032.1 hPa West 11.3 km/h 17.7 km/h 95 % 0 mm 0 W/m2
16:34 10.4 °C 9.6 °C 1032.1 hPa West 9.7 km/h 14.5 km/h 95 % 0 mm 0 W/m2
16:38 10.4 °C 9.6 °C 1032.1 hPa West 9.7 km/h 16.1 km/h 95 % 0 mm 0 W/m2
16:42 10.4 °C 9.6 °C 1032.1 hPa West 9.7 km/h 16.1 km/h 95 % 0 mm 0 W/m2
16:45 10.4 °C 9.6 °C 1032.1 hPa West 9.7 km/h 16.1 km/h 95 % 0 mm 0 W/m2
16:52 10.4 °C 9.6 °C 1032.1 hPa West 11.3 km/h 16.1 km/h 95 % 0 mm 0 W/m2
16:56 10.5 °C 9.7 °C 1032.1 hPa West 9.7 km/h 12.9 km/h 95 % 0 mm 0 W/m2
17:01 10.5 °C 9.7 °C 1032.1 hPa West 11.3 km/h 17.7 km/h 95 % 0 mm 0 W/m2
17:06 10.5 °C 9.6 °C 1032.1 hPa West 9.7 km/h 17.7 km/h 94 % 0 mm 0 W/m2
17:09 10.5 °C 9.6 °C 1032.4 hPa West 9.7 km/h 14.5 km/h 94 % 0 mm 0 W/m2
17:13 10.5 °C 9.6 °C 1032.1 hPa West 9.7 km/h 12.9 km/h 94 % 0 mm 0 W/m2
17:18 10.5 °C 9.6 °C 1032.4 hPa West 9.7 km/h 16.1 km/h 94 % 0 mm 0 W/m2
17:21 10.5 °C 9.6 °C 1032.1 hPa West 11.3 km/h 19.3 km/h 94 % 0 mm 0 W/m2
17:23 10.5 °C 9.6 °C 1032.4 hPa West 11.3 km/h 19.3 km/h 94 % 0 mm 0 W/m2
17:28 10.5 °C 9.6 °C 1032.4 hPa West 8 km/h 14.5 km/h 94 % 0 mm 0 W/m2
17:30 10.5 °C 9.6 °C 1032.4 hPa West 9.7 km/h 12.9 km/h 94 % 0 mm 0 W/m2
17:33 10.5 °C 9.6 °C 1032.4 hPa West 6.4 km/h 9.7 km/h 94 % 0 mm 0 W/m2
17:38 10.4 °C 9.5 °C 1032.4 hPa West 6.4 km/h 14.5 km/h 94 % 0 mm 0 W/m2
17:39 10.4 °C 9.5 °C 1032.1 hPa West 6.4 km/h 14.5 km/h 94 % 0 mm 0 W/m2
17:40 10.4 °C 9.5 °C 1032.1 hPa West 9.7 km/h 16.1 km/h 94 % 0 mm 0 W/m2
17:44 10.4 °C 9.5 °C 1032.1 hPa West 6.4 km/h 12.9 km/h 94 % 0 mm 0 W/m2
17:49 10.4 °C 9.5 °C 1032.1 hPa West 3.2 km/h 9.7 km/h 94 % 0 mm 0 W/m2
17:50 10.4 °C 9.5 °C 1032.1 hPa West 1.6 km/h 3.2 km/h 94 % 0 mm 0 W/m2
17:55 10.3 °C 9.4 °C 1032.1 hPa WNW 4.8 km/h 9.7 km/h 94 % 0 mm 0 W/m2
17:56 10.3 °C 9.4 °C 1032.1 hPa WNW 4.8 km/h 9.7 km/h 94 % 0 mm 0 W/m2
17:57 10.3 °C 9.4 °C 1032.1 hPa West 4.8 km/h 11.3 km/h 94 % 0 mm 0 W/m2
18:02 10.3 °C 9.4 °C 1032.4 hPa WNW 4.8 km/h 9.7 km/h 94 % 0 mm 0 W/m2
18:03 10.3 °C 9.4 °C 1032.4 hPa WNW 4.8 km/h 9.7 km/h 94 % 0 mm 0 W/m2
18:06 10.3 °C 9.4 °C 1032.4 hPa West 8 km/h 11.3 km/h 94 % 0 mm 0 W/m2
18:09 10.3 °C 9.4 °C 1032.4 hPa West 8 km/h 12.9 km/h 94 % 0 mm 0 W/m2
18:12 10.3 °C 9.4 °C 1032.4 hPa West 8 km/h 12.9 km/h 94 % 0 mm 0 W/m2
18:15 10.3 °C 9.4 °C 1032.4 hPa West 9.7 km/h 11.3 km/h 94 % 0 mm 0 W/m2
18:20 10.3 °C 9.4 °C 1032.4 hPa West 6.4 km/h 11.3 km/h 94 % 0 mm 0 W/m2
18:22 10.3 °C 9.4 °C 1032.4 hPa West 8 km/h 11.3 km/h 94 % 0 mm 0 W/m2
18:27 10.3 °C 9.4 °C 1032.4 hPa West 8 km/h 14.5 km/h 94 % 0 mm 0 W/m2
18:28 10.3 °C 9.4 °C 1032.4 hPa West 9.7 km/h 14.5 km/h 94 % 0 mm 0 W/m2
18:34 10.3 °C 9.4 °C 1032.4 hPa West 8 km/h 11.3 km/h 94 % 0 mm 0 W/m2
18:38 10.3 °C 9.4 °C 1032.4 hPa West 12.9 km/h 16.1 km/h 94 % 0 mm 0 W/m2
18:41 10.3 °C 9.4 °C 1032.4 hPa West 9.7 km/h 14.5 km/h 94 % 0 mm 0 W/m2
18:43 10.3 °C 9.4 °C 1032.4 hPa WSW 9.7 km/h 14.5 km/h 94 % 0 mm 0 W/m2
18:48 10.3 °C 9.4 °C 1032.4 hPa WSW 8 km/h 12.9 km/h 94 % 0 mm 0 W/m2
18:53 10.3 °C 9.4 °C 1032.4 hPa WSW 9.7 km/h 19.3 km/h 94 % 0 mm 0 W/m2
18:54 10.3 °C 9.4 °C 1032.4 hPa WSW 9.7 km/h 19.3 km/h 94 % 0 mm 0 W/m2
18:59 10.3 °C 9.4 °C 1032.7 hPa West 4.8 km/h 8 km/h 94 % 0 mm 0 W/m2
19:04 10.2 °C 9.1 °C 1032.7 hPa West 4.8 km/h 9.7 km/h 93 % 0 mm 0 W/m2
19:06 10.2 °C 9.1 °C 1032.7 hPa West 4.8 km/h 6.4 km/h 93 % 0 mm 0 W/m2
19:11 10.2 °C 9.1 °C 1032.7 hPa WSW 6.4 km/h 8 km/h 93 % 0 mm 0 W/m2
19:12 10.2 °C 9.1 °C 1032.7 hPa WSW 4.8 km/h 8 km/h 93 % 0 mm 0 W/m2
19:15 10.2 °C 9.1 °C 1032.7 hPa West 6.4 km/h 9.7 km/h 93 % 0 mm 0 W/m2
19:16 10.2 °C 9.1 °C 1032.7 hPa West 6.4 km/h 9.7 km/h 93 % 0 mm 0 W/m2
19:21 10.2 °C 9.3 °C 1032.7 hPa West 8 km/h 9.7 km/h 94 % 0 mm 0 W/m2
19:22 10.2 °C 9.3 °C 1032.7 hPa West 8 km/h 11.3 km/h 94 % 0 mm 0 W/m2
19:27 10.2 °C 9.3 °C 1032.7 hPa WSW 9.7 km/h 14.5 km/h 94 % 0 mm 0 W/m2
19:32 10.2 °C 9.3 °C 1032.7 hPa WSW 8 km/h 12.9 km/h 94 % 0 mm 0 W/m2
19:36 10.2 °C 9.3 °C 1032.7 hPa WSW 9.7 km/h 12.9 km/h 94 % 0 mm 0 W/m2
19:38 10.1 °C 9.2 °C 1032.7 hPa WSW 11.3 km/h 14.5 km/h 94 % 0 mm 0 W/m2
19:42 10.1 °C 9.2 °C 1032.7 hPa WSW 6.4 km/h 11.3 km/h 94 % 0 mm 0 W/m2
19:43 10.1 °C 9.2 °C 1032.7 hPa WSW 8 km/h 12.9 km/h 94 % 0 mm 0 W/m2
19:48 10.1 °C 9.2 °C 1032.7 hPa SW 6.4 km/h 9.7 km/h 94 % 0 mm 0 W/m2
19:53 10.1 °C 9.2 °C 1032.7 hPa SW 8 km/h 11.3 km/h 94 % 0 mm 0 W/m2
19:54 10.1 °C 9 °C 1032.7 hPa SW 8 km/h 11.3 km/h 93 % 0 mm 0 W/m2
19:59 10.1 °C 9 °C 1032.7 hPa SW 8 km/h 11.3 km/h 93 % 0 mm 0 W/m2
20:02 10.1 °C 9.2 °C 1032.7 hPa SW 8 km/h 12.9 km/h 94 % 0 mm 0 W/m2
20:04 10.1 °C 9.2 °C 1032.7 hPa WSW 9.7 km/h 12.9 km/h 94 % 0 mm 0 W/m2
20:07 10.1 °C 9.2 °C 1032.7 hPa WSW 8 km/h 11.3 km/h 94 % 0 mm 0 W/m2
20:10 10.1 °C 9.2 °C 1032.7 hPa WSW 11.3 km/h 16.1 km/h 94 % 0 mm 0 W/m2
20:14 10.1 °C 9.2 °C 1032.7 hPa West 11.3 km/h 16.1 km/h 94 % 0 mm 0 W/m2
20:19 10.2 °C 9.3 °C 1032.7 hPa WSW 9.7 km/h 12.9 km/h 94 % 0 mm 0 W/m2
20:22 10.2 °C 9.3 °C 1032.7 hPa WSW 11.3 km/h 16.1 km/h 94 % 0 mm 0 W/m2
20:26 10.2 °C 9.3 °C 1032.7 hPa West 11.3 km/h 16.1 km/h 94 % 0 mm 0 W/m2
20:28 10.2 °C 9.3 °C 1032.7 hPa WSW 9.7 km/h 12.9 km/h 94 % 0 mm 0 W/m2
20:33 10.2 °C 9.3 °C 1032.7 hPa WSW 9.7 km/h 16.1 km/h 94 % 0 mm 0 W/m2
20:34 10.2 °C 9.3 °C 1032.7 hPa West 9.7 km/h 16.1 km/h 94 % 0 mm 0 W/m2
20:44 10.2 °C 9.3 °C 1032.7 hPa West 9.7 km/h 14.5 km/h 94 % 0 mm 0 W/m2
20:45 10.2 °C 9.3 °C 1032.7 hPa West 8 km/h 12.9 km/h 94 % 0 mm 0 W/m2
20:49 10.2 °C 9.3 °C 1032.7 hPa West 8 km/h 12.9 km/h 94 % 0 mm 0 W/m2
20:54 10.2 °C 9.3 °C 1032.7 hPa West 8 km/h 12.9 km/h 94 % 0 mm 0 W/m2
20:57 10.2 °C 9.3 °C 1032.7 hPa West 9.7 km/h 16.1 km/h 94 % 0 mm 0 W/m2
21:02 10.2 °C 9.3 °C 1032.7 hPa West 11.3 km/h 16.1 km/h 94 % 0 mm 0 W/m2
21:04 10.2 °C 9.3 °C 1032.7 hPa West 9.7 km/h 14.5 km/h 94 % 0 mm 0 W/m2
21:09 10.1 °C 9.2 °C 1032.7 hPa West 11.3 km/h 17.7 km/h 94 % 0 mm 0 W/m2
21:11 10.1 °C 9 °C 1032.7 hPa West 12.9 km/h 17.7 km/h 93 % 0 mm 0 W/m2
21:17 10.1 °C 9.2 °C 1032.7 hPa West 14.5 km/h 20.9 km/h 94 % 0 mm 0 W/m2
21:20 10.1 °C 9 °C 1032.7 hPa West 8 km/h 14.5 km/h 93 % 0 mm 0 W/m2
21:21 10.1 °C 9 °C 1032.7 hPa West 6.4 km/h 11.3 km/h 93 % 0 mm 0 W/m2
21:26 10 °C 8.9 °C 1032.7 hPa WNW 3.2 km/h 8 km/h 93 % 0 mm 0 W/m2
21:27 10.1 °C 9 °C 1032.7 hPa West 4.8 km/h 9.7 km/h 93 % 0 mm 0 W/m2
21:32 9.9 °C 8.8 °C 1032.7 hPa WNW 4.8 km/h 8 km/h 93 % 0 mm 0 W/m2
21:33 9.9 °C 8.8 °C 1032.7 hPa West 3.2 km/h 8 km/h 93 % 0 mm 0 W/m2
21:36 9.9 °C 8.8 °C 1032.7 hPa West 6.4 km/h 12.9 km/h 93 % 0 mm 0 W/m2
21:40 9.9 °C 8.8 °C 1032.7 hPa WSW 4.8 km/h 9.7 km/h 93 % 0 mm 0 W/m2
21:45 9.9 °C 8.8 °C 1032.7 hPa Calm     93 % 0 mm 0 W/m2
21:46 9.9 °C 8.8 °C 1032.7 hPa Calm     93 % 0 mm 0 W/m2
21:51 9.8 °C 8.7 °C 1032.7 hPa West 3.2 km/h 8 km/h 93 % 0 mm 0 W/m2
21:52 9.8 °C 8.7 °C 1032.7 hPa West 1.6 km/h 8 km/h 93 % 0 mm 0 W/m2
21:57 9.8 °C 8.7 °C 1032.7 hPa WNW 6.4 km/h 8 km/h 93 % 0 mm 0 W/m2
22:02 9.8 °C 8.7 °C 1032.7 hPa WNW 11.3 km/h 12.9 km/h 93 % 0 mm 0 W/m2
22:04 9.8 °C 8.7 °C 1032.7 hPa West 9.7 km/h 12.9 km/h 93 % 0 mm 0 W/m2
22:09 9.8 °C 8.7 °C 1032.7 hPa WNW 9.7 km/h 12.9 km/h 93 % 0 mm 0 W/m2
22:11 9.8 °C 8.7 °C 1032.7 hPa WNW 9.7 km/h 12.9 km/h 93 % 0 mm 0 W/m2
22:15 9.8 °C 8.7 °C 1032.7 hPa West 9.7 km/h 16.1 km/h 93 % 0 mm 0 W/m2
22:16 9.8 °C 8.7 °C 1032.7 hPa West 9.7 km/h 14.5 km/h 93 % 0 mm 0 W/m2
22:21 9.8 °C 8.7 °C 1032.7 hPa West 11.3 km/h 16.1 km/h 93 % 0 mm 0 W/m2
22:26 9.8 °C 8.7 °C 1032.7 hPa West 11.3 km/h 16.1 km/h 93 % 0 mm 0 W/m2
22:27 9.8 °C 8.7 °C 1032.7 hPa West 11.3 km/h 16.1 km/h 93 % 0 mm 0 W/m2
22:32 9.8 °C 8.7 °C 1032.7 hPa West 11.3 km/h 19.3 km/h 93 % 0 mm 0 W/m2
22:33 9.8 °C 8.7 °C 1032.7 hPa West 11.3 km/h 19.3 km/h 93 % 0 mm 0 W/m2
22:38 9.8 °C 8.7 °C 1032.7 hPa West 9.7 km/h 16.1 km/h 93 % 0 mm 0 W/m2
22:39 9.8 °C 8.7 °C 1032.7 hPa West 8 km/h 11.3 km/h 93 % 0 mm 0 W/m2
22:44 9.7 °C 8.6 °C 1032.7 hPa West 9.7 km/h 12.9 km/h 93 % 0 mm 0 W/m2
22:46 9.7 °C 8.6 °C 1032.7 hPa West 8 km/h 12.9 km/h 93 % 0 mm 0 W/m2
22:50 9.6 °C 8.5 °C 1032.7 hPa WNW 6.4 km/h 12.9 km/h 93 % 0 mm 0 W/m2
22:55 9.6 °C 8.5 °C 1032.7 hPa WNW 8 km/h 12.9 km/h 93 % 0 mm 0 W/m2
22:58 9.5 °C 8.4 °C 1032.7 hPa WNW 8 km/h 11.3 km/h 93 % 0 mm 0 W/m2
23:03 9.4 °C 8.3 °C 1032.7 hPa West 8 km/h 11.3 km/h 93 % 0 mm 0 W/m2
23:06 9.4 °C 8.3 °C 1032.7 hPa West 8 km/h 11.3 km/h 93 % 0 mm 0 W/m2
23:14 9.4 °C 8.3 °C 1032.7 hPa West 8 km/h 14.5 km/h 93 % 0 mm 0 W/m2
23:19 9.4 °C 8.3 °C 1032.7 hPa West 8 km/h 11.3 km/h 93 % 0 mm 0 W/m2
23:20 9.3 °C 8.2 °C 1032.7 hPa WNW 6.4 km/h 11.3 km/h 93 % 0 mm 0 W/m2
23:21 9.3 °C 8.2 °C 1032.7 hPa WNW 8 km/h 16.1 km/h 93 % 0 mm 0 W/m2
23:26 9.3 °C 8.2 °C 1032.4 hPa West 8 km/h 16.1 km/h 93 % 0 mm 0 W/m2
23:27 9.3 °C 8.2 °C 1032.4 hPa West 8 km/h 16.1 km/h 93 % 0 mm 0 W/m2
23:32 9.3 °C 8.2 °C 1032.4 hPa WNW 9.7 km/h 12.9 km/h 93 % 0 mm 0 W/m2
23:36 9.3 °C 8.2 °C 1032.4 hPa West 8 km/h 17.7 km/h 93 % 0 mm 0 W/m2
23:41 9.3 °C 8.2 °C 1032.4 hPa WNW 9.7 km/h 12.9 km/h 93 % 0 mm 0 W/m2
23:46 9.3 °C 8.2 °C 1032.4 hPa WNW 9.7 km/h 11.3 km/h 93 % 0 mm 0 W/m2
23:48 9.3 °C 8.2 °C 1032.4 hPa WNW 8 km/h 12.9 km/h 93 % 0 mm 0 W/m2
23:53 9.2 °C 8.1 °C 1032.4 hPa WNW 6.4 km/h 11.3 km/h 93 % 0 mm 0 W/m2
23:58 9.2 °C 8.1 °C 1032.4 hPa West 8 km/h 11.3 km/h 93 % 0 mm 0 W/m2
Delerius-Weather
Compliments of Weather Underground - 3 mb

Data updates at regular intervals.